Guymon, OK (73942)

3:59 AM CDT on September 20, 2014 (GMT -0500)
Guymon Municipal | Change Station
CLOSE
Current Station
Airport
Location: Guymon,
Elevation: 3123 ft
Nearby Weather Stations

Elev 3123 ft 36.68 °N, 101.51 °W | Updated 1 hour ago

Clear
Clear
66 °F
Feels Like 66 °F
N
9
Wind Variable Wind from SSW

Today
High -- | Low -- °F
--% Chance of Precip.
Yesterday
High -- | Low -- °F
Precip. -- in
7:32 AM 7:45 PM
Waning Crescent, 13% visible
Pressure 29.88 in
Visibility 10.0 miles
Clouds Clear
Dew Point 64 °F
Humidity 93%
Rainfall 0.00 in
Snow Depth Not available.
UV 0 out of 12
Pollen 6.80 out of 12
Air Quality Not available.
Flu Activity Not available.
METAR KGUY 200753Z AUTO 20008KT 10SM CLR 19/18 A3001 RMK AO2 SLP117 T01890178

More Conditions Fewer Conditions

Pressure 29.88 in
Visibility 10.0 miles
Clouds Clear
Dew Point 64 °F
Humidity 93%
Rainfall 0.00 in
Snow Depth Not available.
UV 0 out of 12
Pollen 6.80 out of 12
Air Quality Not available.
Flu Activity Not available.
METAR KGUY 200753Z AUTO 20008KT 10SM CLR 19/18 A3001 RMK AO2 SLP117 T01890178

More Conditions Fewer Conditions

10-Day Weather Forecast

Almanac

Astronomy

Sep. 20, 2014 Rise Set
Actual Time 7:32 AM CDT 7:45 PM CDT
Civil Twilight 7:06 AM CDT 8:11 PM CDT
Nautical Twilight 6:36 AM CDT 8:41 PM CDT
Astronomical Twilight 6:05 AM CDT 9:12 PM CDT
Moon 4:17 AM CDT 5:46 PM CDT
Length of Visible Light 13h 05m
Length of Day
12h 13m
Tomorrow will be 2m 18s shorter.
Waning Crescent, 13% of the Moon is Illuminated
Today
Waning Crescent
Sep 24
New
Oct 1
First Quarter
Oct 8
Full
Oct 15
Last Quarter

Today's Extremes

State Highs State Lows

Community

WunderPhotos

Upload Photos

1,754,793 photos uploaded!

WunderBlogs® & News

Nearby

Snow Depth

Station Depth Elevation
No new snow has been reported.

Earthquake Activity

City Distance Mag. Time & Date
No recent earthquake activity has been reported nearby.
Minimum magnitude displayed is 2.5.

Coastal Water Temperatures

Place Temperature
No Stations Reporting

Nearby Weather Stations